PWSweather.com
Personal Weather Stations
Station Observations
KVAGLENALL
West Henrico, Glen Allen, VA 23060-6503

West HenricoGlen Allen, VA 23060-6503

Lat: 37.6554, Lon: -77.5693

Elevation: 273

Station Type: Davis Vantage Pro II

www.glenallenweather.com

High Low Average
Temperature 58.0°F14.4°C 37.5°F3.1°C 50.6°F10.3°C
Dew Point 55.4°F13.0°C 20.6°F-6.3°C 45.3°F7.4°C
Winds 11.0 mph 17.7 kmh 1.0 mph 1.6 kmh 6.0 mph S9.7 kmh S
Wind Gusts 23.2 mph37.3 kmh 1.0 mph1.6 kmh 11.0 mph17.7 kmh
Humidity 98% 50% 83%
Pressure 29.70 in1005.8 mb 29.31 in992.6 mb -
Precipitation 0.00 in0.0 mm - -
Hour Temp Dew Point Humidity Winds Wind Gusts Pressure Precip Precip Rate Daily Precip Total
12:00 AM 47.6°F8.7°C 46.3°F7.9°C 95% 1.0 mph S1.6 kmh S 1.0 mph1.6 kmh 29.64 in1003.7 mb 0.00 in0.0 mm 0.00 in0.0 mm 0.00 in0.0 mm
12:30 AM 47.5°F8.6°C 46.5°F8.1°C 96% 1.0 mph S1.6 kmh S 2.0 mph3.2 kmh 29.61 in1002.7 mb 0.02 in0.5 mm 0.04 in1.0 mm 0.02 in0.5 mm
01:00 AM 48.3°F9.1°C 47.3°F8.5°C 96% 2.0 mph SE3.2 kmh SE 3.0 mph4.8 kmh 29.58 in1001.7 mb 0.04 in1.0 mm 0.04 in1.0 mm 0.04 in1.0 mm
01:30 AM 50.3°F10.2°C 49.4°F9.7°C 97% 2.0 mph SE3.2 kmh SE 6.1 mph9.8 kmh 29.55 in1000.7 mb 0.06 in1.5 mm 0.04 in1.0 mm 0.06 in1.5 mm
02:00 AM 51.6°F10.9°C 50.7°F10.4°C 97% 1.0 mph SSE1.6 kmh SSE 5.1 mph8.2 kmh 29.53 in1000.0 mb 0.05 in1.3 mm 0.00 in0.0 mm 0.06 in1.5 mm
02:30 AM 52.8°F11.6°C 52.2°F11.2°C 98% 4.0 mph SSE6.4 kmh SSE 11.1 mph17.9 kmh 29.51 in999.3 mb 0.08 in2.0 mm 0.06 in1.5 mm 0.09 in2.3 mm
03:00 AM 53.7°F12.1°C 52.8°F11.6°C 97% 6.0 mph SE9.7 kmh SE 9.1 mph14.6 kmh 29.47 in998.0 mb 0.13 in3.3 mm 0.10 in2.5 mm 0.14 in3.6 mm
03:30 AM 54.8°F12.7°C 54.2°F12.3°C 98% 7.0 mph S11.3 kmh S 12.1 mph19.5 kmh 29.42 in996.3 mb 0.19 in4.8 mm 0.12 in3.0 mm 0.20 in5.1 mm
04:00 AM 55.0°F12.8°C 54.1°F12.3°C 97% 11.0 mph SE17.7 kmh SE 20.2 mph32.5 kmh 29.37 in994.6 mb 0.16 in4.1 mm 0.00 in0.0 mm 0.20 in5.1 mm
04:30 AM 55.5°F13.1°C 54.6°F12.6°C 97% 11.0 mph SE17.7 kmh SE 17.2 mph27.7 kmh 29.31 in992.6 mb 0.10 in2.5 mm 0.00 in0.0 mm 0.20 in5.1 mm
05:00 AM 56.0°F13.3°C 54.3°F12.4°C 94% 7.0 mph SW11.3 kmh SW 10.1 mph16.3 kmh 29.34 in993.6 mb 0.03 in0.8 mm 0.00 in0.0 mm 0.20 in5.1 mm
05:30 AM 55.8°F13.2°C 54.4°F12.4°C 95% 6.0 mph SW9.7 kmh SW 8.1 mph13.0 kmh 29.33 in993.2 mb 0.01 in0.3 mm 0.00 in0.0 mm 0.20 in5.1 mm
06:00 AM 56.2°F13.4°C 54.8°F12.7°C 95% 6.0 mph SW9.7 kmh SW 10.1 mph16.3 kmh 29.33 in993.2 mb 0.00 in0.0 mm 0.00 in0.0 mm 0.20 in5.1 mm
06:30 AM 57.4°F14.1°C 55.4°F13.0°C 93% 8.0 mph S12.9 kmh S 12.1 mph19.5 kmh 29.34 in993.6 mb 0.00 in0.0 mm 0.00 in0.0 mm 0.20 in5.1 mm
07:00 AM 58.0°F14.4°C 55.4°F13.0°C 91% 5.0 mph SSW8.0 kmh SSW 14.1 mph22.7 kmh 29.34 in993.6 mb 0.02 in0.5 mm 0.04 in1.0 mm 0.22 in5.6 mm
07:30 AM 55.4°F13.0°C 53.4°F11.9°C 93% 2.0 mph S3.2 kmh S 3.0 mph4.8 kmh 29.34 in993.6 mb 0.00 in0.0 mm 0.00 in0.0 mm 0.22 in5.6 mm
08:00 AM 53.9°F12.2°C 52.5°F11.4°C 95% 2.0 mph SW3.2 kmh SW 4.0 mph6.4 kmh 29.35 in993.9 mb 0.00 in0.0 mm 0.00 in0.0 mm 0.22 in5.6 mm
08:30 AM 56.5°F13.6°C 54.2°F12.3°C 92% 2.0 mph WSW3.2 kmh WSW 5.1 mph8.2 kmh 29.36 in994.2 mb 0.00 in0.0 mm 0.00 in0.0 mm 0.22 in5.6 mm
09:00 AM 54.4°F12.4°C 51.2°F10.7°C 89% 5.0 mph WSW8.0 kmh WSW 8.1 mph13.0 kmh 29.38 in994.9 mb 0.00 in0.0 mm 0.00 in0.0 mm 0.22 in5.6 mm
09:30 AM 54.8°F12.7°C 50.4°F10.2°C 85% 7.0 mph WNW11.3 kmh WNW 7.1 mph11.4 kmh 29.39 in995.3 mb 0.00 in0.0 mm 0.00 in0.0 mm 0.22 in5.6 mm
10:00 AM 54.4°F12.4°C 49.0°F9.4°C 82% 7.0 mph NW11.3 kmh NW 8.1 mph13.0 kmh 29.41 in995.9 mb 0.00 in0.0 mm 0.00 in0.0 mm 0.22 in5.6 mm
10:30 AM 52.7°F11.5°C 46.7°F8.2°C 80% 7.0 mph WNW11.3 kmh WNW 13.1 mph21.1 kmh 29.45 in997.3 mb 0.00 in0.0 mm 0.00 in0.0 mm 0.22 in5.6 mm
11:00 AM 51.5°F10.8°C 44.5°F6.9°C 77% 3.0 mph NW4.8 kmh NW 13.1 mph21.1 kmh 29.47 in998.0 mb 0.00 in0.0 mm 0.00 in0.0 mm 0.22 in5.6 mm
11:15 AM 50.3°F10.2°C 44.0°F6.7°C 79% 10.0 mph NNW16.1 kmh NNW 23.2 mph37.3 kmh 29.48 in998.3 mb 0.00 in0.0 mm 0.00 in0.0 mm 0.22 in5.6 mm
11:30 AM 47.5°F8.6°C 42.6°F5.9°C 83% 10.0 mph N16.1 kmh N 14.1 mph22.7 kmh 29.49 in998.6 mb 0.00 in0.0 mm 0.00 in0.0 mm 0.22 in5.6 mm
12:00 PM 48.5°F9.2°C 42.7°F5.9°C 80% 9.0 mph N14.5 kmh N 12.1 mph19.5 kmh 29.51 in999.3 mb 0.00 in0.0 mm 0.00 in0.0 mm 0.22 in5.6 mm
12:30 PM 47.8°F8.8°C 40.3°F4.6°C 75% 8.0 mph NW12.9 kmh NW 14.1 mph22.7 kmh 29.51 in999.3 mb 0.00 in0.0 mm 0.00 in0.0 mm 0.22 in5.6 mm
01:00 PM 47.9°F8.8°C 36.8°F2.7°C 65% 10.0 mph N16.1 kmh N 15.1 mph24.3 kmh 29.53 in1000.0 mb 0.00 in0.0 mm 0.00 in0.0 mm 0.22 in5.6 mm
01:30 PM 45.4°F7.4°C 34.0°F1.1°C 64% 9.0 mph NE14.5 kmh NE 11.1 mph17.9 kmh 29.56 in1001.0 mb 0.00 in0.0 mm 0.00 in0.0 mm 0.22 in5.6 mm
02:00 PM 46.4°F8.0°C 32.5°F0.3°C 58% 6.0 mph NNE9.7 kmh NNE 16.2 mph26.1 kmh 29.57 in1001.4 mb 0.00 in0.0 mm 0.00 in0.0 mm 0.22 in5.6 mm
02:30 PM 44.1°F6.7°C 31.1°F-0.5°C 60% 8.0 mph NNE12.9 kmh NNE 17.2 mph27.7 kmh 29.60 in1002.4 mb 0.00 in0.0 mm 0.00 in0.0 mm 0.22 in5.6 mm
03:00 PM 42.4°F5.8°C 27.8°F-2.3°C 56% 6.0 mph ENE9.7 kmh ENE 11.1 mph17.9 kmh 29.63 in1003.4 mb 0.00 in0.0 mm 0.00 in0.0 mm 0.22 in5.6 mm
03:30 PM 41.1°F5.1°C 26.6°F-3.0°C 56% 9.0 mph NNE14.5 kmh NNE 12.1 mph19.5 kmh 29.65 in1004.1 mb 0.00 in0.0 mm 0.00 in0.0 mm 0.22 in5.6 mm
04:00 PM 39.2°F4.0°C 22.1°F-5.5°C 50% 2.0 mph NW3.2 kmh NW 14.1 mph22.7 kmh 29.68 in1005.1 mb 0.00 in0.0 mm 0.00 in0.0 mm 0.22 in5.6 mm
04:30 PM 37.5°F3.1°C 20.6°F-6.3°C 50% 9.0 mph NE14.5 kmh NE 12.1 mph19.5 kmh 29.70 in1005.8 mb 0.00 in0.0 mm 0.00 in0.0 mm 0.22 in5.6 mm